createdAt,value
2023-05-19T00:02:26.184Z,101021.97
2023-05-19T00:04:55.177Z,101014.13
2023-05-19T00:07:28.944Z,101021.22
2023-05-19T00:09:58.071Z,101012.44
2023-05-19T00:12:28.632Z,101014.22
2023-05-19T00:14:57.548Z,101010.72
2023-05-19T00:17:26.459Z,101003.69
2023-05-19T00:19:54.932Z,101008.03
2023-05-19T00:22:23.546Z,101005.44
2023-05-19T00:24:51.931Z,101002.81
2023-05-19T00:27:20.291Z,101013.38
2023-05-19T00:29:50.158Z,101019.50
2023-05-19T00:32:18.873Z,101014.34
2023-05-19T00:34:48.561Z,101022.28
2023-05-19T00:37:18.718Z,101020.47
2023-05-19T00:39:47.176Z,101017.78
2023-05-19T00:42:15.900Z,101021.19
2023-05-19T00:44:44.399Z,101014.94
2023-05-19T00:47:14.228Z,101014.78
2023-05-19T00:49:42.579Z,101027.75
2023-05-19T00:52:10.991Z,101022.31
2023-05-19T00:54:40.892Z,101013.38
2023-05-19T00:57:09.480Z,101014.22
2023-05-19T00:59:37.984Z,101016.78
2023-05-19T01:02:07.049Z,101021.09
2023-05-19T01:04:39.578Z,101017.59
2023-05-19T01:07:08.439Z,101020.34
2023-05-19T01:09:37.430Z,101014.28
2023-05-19T01:12:06.221Z,101014.31
2023-05-19T01:14:34.679Z,101014.38
2023-05-19T01:17:10.059Z,101013.59
2023-05-19T01:19:57.602Z,101008.41
2023-05-19T01:22:43.070Z,101015.63
2023-05-19T01:25:44.335Z,101028.81
2023-05-19T01:28:41.751Z,101019.28
2023-05-19T01:31:13.341Z,101017.63
2023-05-19T01:33:45.052Z,101014.25
2023-05-19T01:36:14.760Z,101023.06
2023-05-19T01:38:44.672Z,101017.84
2023-05-19T01:41:14.010Z,101022.28
2023-05-19T01:43:42.717Z,101032.91
2023-05-19T01:46:13.365Z,101026.81
2023-05-19T01:48:42.813Z,101028.66
2023-05-19T01:51:11.174Z,101026.13
2023-05-19T01:53:40.044Z,101029.72
2023-05-19T01:56:09.166Z,101032.41
2023-05-19T01:58:45.226Z,101029.00
2023-05-19T02:01:28.948Z,101037.00
2023-05-19T02:04:18.711Z,101031.81
2023-05-19T02:06:52.925Z,101030.94
2023-05-19T02:09:28.133Z,101031.03
2023-05-19T02:12:02.668Z,101030.22
2023-05-19T02:14:36.545Z,101028.50
2023-05-19T02:17:06.524Z,101029.41
2023-05-19T02:19:39.144Z,101025.03
2023-05-19T02:22:07.911Z,101033.88
2023-05-19T02:24:36.818Z,101032.13
2023-05-19T02:27:06.457Z,101033.91
2023-05-19T02:29:35.684Z,101013.00
2023-05-19T02:32:04.086Z,101014.84
2023-05-19T02:34:33.951Z,101007.91
2023-05-19T02:37:02.379Z,101004.41
2023-05-19T02:39:35.232Z,101003.53
2023-05-19T02:42:04.220Z,101004.41
2023-05-19T02:44:32.570Z,101003.53
2023-05-19T02:47:01.095Z,101004.50
2023-05-19T02:49:30.983Z,101003.59
2023-05-19T02:52:00.738Z,101004.50
2023-05-19T02:54:29.080Z,101001.91
2023-05-19T02:56:57.520Z,101000.25
2023-05-19T02:59:26.137Z,101000.28
2023-05-19T03:01:57.378Z,100995.94
2023-05-19T03:04:25.933Z,100996.88
2023-05-19T03:06:54.289Z,100988.19
2023-05-19T03:09:24.078Z,100991.72
2023-05-19T03:11:52.800Z,100995.31
2023-05-19T03:14:24.291Z,100997.94
2023-05-19T03:16:53.150Z,100992.59
2023-05-19T03:19:21.732Z,100994.41
2023-05-19T03:21:50.345Z,100984.72
2023-05-19T03:24:18.848Z,100990.09
2023-05-19T03:26:48.978Z,100992.81
2023-05-19T03:29:17.396Z,100994.63
2023-05-19T03:31:46.824Z,100991.91
2023-05-19T03:34:17.775Z,100995.44
2023-05-19T03:36:46.187Z,100986.00
2023-05-19T03:39:17.356Z,100986.13
2023-05-19T03:41:48.784Z,100982.69
2023-05-19T03:44:17.361Z,100991.53
2023-05-19T03:46:46.318Z,100997.72
2023-05-19T03:49:33.067Z,101003.91
2023-05-19T03:52:36.674Z,101005.72
2023-05-19T03:55:12.895Z,101010.16
2023-05-19T03:57:43.439Z,101016.25
2023-05-19T04:00:13.537Z,101018.88
2023-05-19T04:02:42.184Z,101017.19
2023-05-19T04:05:11.664Z,101028.56
2023-05-19T04:07:40.127Z,101023.34
2023-05-19T04:10:09.598Z,101019.03
2023-05-19T04:12:38.020Z,101019.94
2023-05-19T04:15:11.539Z,101020.84
2023-05-19T04:17:39.792Z,101023.50
2023-05-19T04:20:09.165Z,101027.84
2023-05-19T04:22:37.659Z,101034.88
2023-05-19T04:25:07.735Z,101030.56
2023-05-19T04:27:38.992Z,101031.47
2023-05-19T04:30:10.584Z,101039.28
2023-05-19T04:32:39.836Z,101047.13
2023-05-19T04:35:08.836Z,101056.66
2023-05-19T04:37:38.481Z,101052.19
2023-05-19T04:40:31.506Z,101050.38
2023-05-19T04:43:02.364Z,101046.00
2023-05-19T04:45:34.150Z,101035.53
2023-05-19T04:48:04.320Z,101033.78
2023-05-19T04:50:33.045Z,101022.44
2023-05-19T04:53:02.240Z,101022.50
2023-05-19T04:55:31.247Z,101011.19
2023-05-19T04:57:59.765Z,101015.63
2023-05-19T05:00:29.800Z,101007.81
2023-05-19T05:03:07.239Z,101006.09
2023-05-19T05:05:36.281Z,100999.06
2023-05-19T05:08:04.939Z,100992.03
2023-05-19T05:10:38.997Z,100991.16
2023-05-19T05:13:08.690Z,100984.22
2023-05-19T05:15:38.742Z,100985.13
2023-05-19T05:18:09.486Z,100987.00
2023-05-19T05:20:38.781Z,100988.75
2023-05-19T05:23:09.751Z,100982.59
2023-05-19T05:25:40.148Z,100989.59
2023-05-19T05:28:08.652Z,100999.19
2023-05-19T05:30:39.113Z,101008.81
2023-05-19T05:33:10.667Z,101001.81
2023-05-19T05:35:41.204Z,101006.19
2023-05-19T05:38:12.629Z,101008.88
2023-05-19T05:40:41.914Z,101012.41
2023-05-19T05:43:10.985Z,101015.97
2023-05-19T05:45:46.280Z,101021.22
2023-05-19T05:48:17.637Z,101024.75
2023-05-19T05:50:47.129Z,101018.66
2023-05-19T05:53:21.502Z,101018.66
2023-05-19T05:55:54.937Z,101023.09
2023-05-19T05:58:28.715Z,101029.25
2023-05-19T06:00:59.870Z,101033.66
2023-05-19T06:03:29.773Z,101035.41
2023-05-19T06:06:03.102Z,101030.25
2023-05-19T06:08:31.763Z,101024.91
2023-05-19T06:11:00.323Z,101032.75
2023-05-19T06:13:30.974Z,101033.56
2023-05-19T06:16:02.006Z,101030.13
2023-05-19T06:18:41.110Z,101025.75
2023-05-19T06:21:10.522Z,101026.63
2023-05-19T06:23:39.366Z,101024.81
2023-05-19T06:26:09.323Z,101027.44
2023-05-19T06:28:37.789Z,101022.09
2023-05-19T06:31:06.950Z,101036.13
2023-05-19T06:33:48.107Z,101037.84
2023-05-19T06:36:17.754Z,101043.03
2023-05-19T06:38:47.133Z,101032.50
2023-05-19T06:41:15.562Z,101032.38
2023-05-19T06:43:44.162Z,101036.56
2023-05-19T06:46:17.941Z,101032.00
2023-05-19T06:48:48.112Z,101038.69
2023-05-19T06:51:21.864Z,101038.25
2023-05-19T06:53:55.702Z,101043.03
2023-05-19T06:56:25.144Z,101045.97
2023-05-19T06:58:53.485Z,101044.72
2023-05-19T07:01:28.235Z,101042.59
2023-05-19T07:04:01.961Z,101050.25
2023-05-19T07:06:31.513Z,101042.00
2023-05-19T07:09:00.128Z,101045.28
2023-05-19T07:11:29.862Z,101038.03
2023-05-19T07:13:58.317Z,101051.88
2023-05-19T07:16:29.927Z,101052.56
2023-05-19T07:18:58.486Z,101061.13
2023-05-19T07:21:28.482Z,101063.31
2023-05-19T07:23:57.131Z,101060.19
2023-05-19T07:26:26.532Z,101066.69
2023-05-19T07:28:55.051Z,101072.28
2023-05-19T07:31:23.592Z,101069.00
2023-05-19T07:33:54.526Z,101072.06
2023-05-19T07:36:23.330Z,101073.50
2023-05-19T07:38:53.225Z,101079.47
2023-05-19T07:41:21.731Z,101077.44
2023-05-19T07:43:50.224Z,101072.88
2023-05-19T07:46:18.824Z,101079.81
2023-05-19T07:48:47.414Z,101072.59
2023-05-19T07:51:16.325Z,101074.03
2023-05-19T07:53:44.684Z,101079.00
2023-05-19T07:56:14.740Z,101070.03
2023-05-19T07:58:43.134Z,101070.88
2023-05-19T08:01:11.610Z,101069.88
2023-05-19T08:03:40.133Z,101060.22
2023-05-19T08:06:08.601Z,101058.66
2023-05-19T08:08:37.041Z,101045.28
2023-05-19T08:11:06.719Z,101043.25
2023-05-19T08:13:37.028Z,101051.88
2023-05-19T08:16:05.545Z,101047.34
2023-05-19T08:18:34.060Z,101050.50
2023-05-19T08:21:02.759Z,101040.31
2023-05-19T08:23:31.136Z,101035.72
2023-05-19T08:25:59.564Z,101041.09
2023-05-19T08:28:27.954Z,101043.09
2023-05-19T08:30:57.879Z,101036.94
2023-05-19T08:33:26.317Z,101032.28
2023-05-19T08:35:55.772Z,101042.38
2023-05-19T08:38:24.205Z,101037.41
2023-05-19T08:40:52.703Z,101039.38
2023-05-19T08:43:21.084Z,101030.16
2023-05-19T08:45:50.178Z,101033.84
2023-05-19T08:48:20.742Z,101032.13
2023-05-19T08:50:58.478Z,101036.69
2023-05-19T08:53:34.557Z,101030.91
2023-05-19T08:56:11.139Z,101029.84
2023-05-19T08:58:41.473Z,101031.22
2023-05-19T09:01:10.991Z,101034.72
2023-05-19T09:03:42.976Z,101036.38
2023-05-19T09:06:13.778Z,101037.25
2023-05-19T09:08:42.963Z,101047.75
2023-05-19T09:11:11.893Z,101053.16
2023-05-19T09:13:40.570Z,101050.06
2023-05-19T09:16:09.565Z,101050.56
2023-05-19T09:18:41.898Z,101047.13
2023-05-19T09:21:12.077Z,101043.56
2023-05-19T09:23:40.519Z,101050.91
2023-05-19T09:26:09.034Z,101046.78
2023-05-19T09:28:38.502Z,101053.03
2023-05-19T09:31:07.889Z,101044.09
2023-05-19T09:33:37.548Z,101037.41
2023-05-19T09:36:08.631Z,101048.09
2023-05-19T09:38:37.530Z,101040.53
2023-05-19T09:41:07.843Z,101040.28
2023-05-19T09:43:36.918Z,101035.59
2023-05-19T09:46:06.395Z,101044.66
2023-05-19T09:48:36.649Z,101039.03
2023-05-19T09:51:10.478Z,101038.47
2023-05-19T09:53:39.282Z,101037.31
2023-05-19T09:56:10.110Z,101043.94
2023-05-19T09:58:39.232Z,101038.03
2023-05-19T10:01:08.368Z,101041.63
2023-05-19T10:03:37.973Z,101041.13
2023-05-19T10:06:09.681Z,101041.94
2023-05-19T10:08:39.069Z,101033.19
2023-05-19T10:11:08.252Z,101032.16
2023-05-19T10:13:38.774Z,101016.00
2023-05-19T10:16:07.997Z,101022.25
2023-05-19T10:18:39.576Z,101033.19
2023-05-19T10:21:10.740Z,101026.53
2023-05-19T10:23:39.910Z,101030.91
2023-05-19T10:26:09.440Z,101031.84
2023-05-19T10:28:40.894Z,101027.06
2023-05-19T10:31:13.432Z,101032.38
2023-05-19T10:34:02.526Z,101021.97
2023-05-19T10:36:45.884Z,101023.34
2023-05-19T10:39:21.066Z,101014.56
2023-05-19T10:42:02.685Z,101011.25
2023-05-19T10:44:47.874Z,101014.66
2023-05-19T10:47:21.708Z,101013.00
2023-05-19T10:49:50.351Z,101019.78
2023-05-19T10:52:26.214Z,101009.00
2023-05-19T10:54:55.320Z,101008.88
2023-05-19T10:57:28.618Z,101005.72
2023-05-19T10:59:57.534Z,101011.63
2023-05-19T11:02:41.713Z,100998.88
2023-05-19T11:05:11.144Z,100998.59
2023-05-19T11:07:42.867Z,100995.63
2023-05-19T11:10:12.150Z,100993.97
2023-05-19T11:12:44.932Z,100992.00
2023-05-19T11:15:15.257Z,100998.59
2023-05-19T11:17:46.565Z,100997.25
2023-05-19T11:20:23.696Z,101000.94
2023-05-19T11:23:09.927Z,101003.81
2023-05-19T11:25:47.063Z,101002.09
2023-05-19T11:28:19.689Z,100997.34
2023-05-19T11:30:52.167Z,100997.00
2023-05-19T11:33:21.860Z,100989.41
2023-05-19T11:35:52.454Z,100989.34
2023-05-19T11:38:23.891Z,100990.41
2023-05-19T11:40:54.973Z,100989.78
2023-05-19T11:43:25.060Z,100994.06
2023-05-19T11:45:55.117Z,101002.03
2023-05-19T11:48:24.253Z,100993.50
2023-05-19T11:50:52.943Z,100985.13
2023-05-19T11:53:22.925Z,100993.03
2023-05-19T11:55:52.059Z,100995.44
2023-05-19T11:58:27.456Z,100984.50
2023-05-19T12:00:56.400Z,100991.38
2023-05-19T12:03:26.642Z,100979.53
2023-05-19T12:05:56.148Z,100983.50
2023-05-19T12:08:27.306Z,100980.81
2023-05-19T12:10:56.441Z,100978.28
2023-05-19T12:13:24.910Z,100971.22
2023-05-19T12:15:53.962Z,100971.94
2023-05-19T12:18:22.457Z,100982.88
2023-05-19T12:20:51.418Z,100969.31
2023-05-19T12:23:20.332Z,100964.41
2023-05-19T12:25:50.679Z,100977.16
2023-05-19T12:28:21.041Z,100975.13
2023-05-19T12:30:52.354Z,100976.19
2023-05-19T12:33:20.993Z,100974.63
2023-05-19T12:35:50.237Z,100976.22
2023-05-19T12:38:20.633Z,100980.56
2023-05-19T12:40:51.547Z,100980.25
2023-05-19T12:43:24.189Z,100977.78
2023-05-19T12:45:53.518Z,100975.19
2023-05-19T12:48:23.921Z,100977.94
2023-05-19T12:50:54.053Z,100977.06
2023-05-19T12:53:22.637Z,100975.75
2023-05-19T12:55:54.232Z,100976.19
2023-05-19T12:58:23.428Z,100985.38
2023-05-19T13:00:52.893Z,100983.94
2023-05-19T13:03:22.302Z,100992.75
2023-05-19T13:05:52.200Z,100988.59
2023-05-19T13:08:24.165Z,100984.22
2023-05-19T13:10:54.713Z,100987.38
2023-05-19T13:13:23.340Z,100977.47
2023-05-19T13:15:51.773Z,100976.66
2023-05-19T13:18:20.600Z,100970.69
2023-05-19T13:20:50.332Z,100975.72
2023-05-19T13:23:18.868Z,100985.09
2023-05-19T13:25:47.424Z,100973.19
2023-05-19T13:28:17.343Z,100970.81
2023-05-19T13:30:46.879Z,100969.00
2023-05-19T13:33:15.455Z,100970.31
2023-05-19T13:35:44.032Z,100975.84
2023-05-19T13:38:12.474Z,100979.69
2023-05-19T13:40:41.085Z,100969.97
2023-05-19T13:43:09.950Z,100972.38
2023-05-19T13:45:41.323Z,100984.75
2023-05-19T13:48:11.069Z,100985.13
2023-05-19T13:50:39.686Z,100989.34
2023-05-19T13:53:08.406Z,100984.38
2023-05-19T13:55:36.997Z,100982.88
2023-05-19T13:58:05.383Z,100978.13
2023-05-19T14:00:36.323Z,100973.31
2023-05-19T14:03:07.060Z,100982.69
2023-05-19T14:05:35.817Z,100977.06
2023-05-19T14:08:05.667Z,100977.59
2023-05-19T14:10:34.272Z,100986.16
2023-05-19T14:15:38.082Z,100983.53
2023-05-19T14:18:08.594Z,100985.47
2023-05-19T14:20:37.071Z,100984.75
2023-05-19T14:23:05.709Z,100984.13
2023-05-19T14:25:34.200Z,100989.34
2023-05-19T14:28:02.966Z,100989.13
2023-05-19T14:30:31.810Z,100985.47
2023-05-19T14:33:00.594Z,100993.25
2023-05-19T14:35:31.158Z,100989.84
2023-05-19T14:37:59.622Z,100990.84
2023-05-19T14:40:28.147Z,100987.41
2023-05-19T14:42:56.569Z,100979.47
2023-05-19T14:45:25.050Z,100988.38
2023-05-19T14:47:53.590Z,100982.25
2023-05-19T14:50:22.111Z,100990.22
2023-05-19T14:52:52.309Z,100984.97
2023-05-19T14:55:20.728Z,100996.25
2023-05-19T14:57:49.070Z,100992.47
2023-05-19T15:00:18.162Z,100995.69
2023-05-19T15:02:46.996Z,100995.59
2023-05-19T15:05:15.430Z,100996.63
2023-05-19T15:07:43.833Z,100990.06
2023-05-19T15:10:13.829Z,100989.97
2023-05-19T15:12:42.222Z,100994.59
2023-05-19T15:15:11.534Z,101002.31
2023-05-19T15:17:41.113Z,101004.38
2023-05-19T15:20:10.291Z,101003.47
2023-05-19T15:22:38.690Z,101010.38
2023-05-19T15:25:08.111Z,100996.97
2023-05-19T15:27:37.974Z,100998.44
2023-05-19T15:30:07.732Z,101000.06
2023-05-19T15:32:36.094Z,100994.66
2023-05-19T15:35:04.607Z,100992.88
2023-05-19T15:37:33.641Z,100990.97
2023-05-19T15:40:02.186Z,100990.75
2023-05-19T15:42:30.548Z,100986.94
2023-05-19T15:45:00.462Z,100983.16
2023-05-19T15:47:28.999Z,100988.28
2023-05-19T15:49:57.443Z,100984.03
2023-05-19T15:52:27.019Z,100982.41
2023-05-19T15:54:59.105Z,100986.84
2023-05-19T15:57:27.565Z,100975.47
2023-05-19T15:59:55.949Z,100988.69
2023-05-19T16:02:26.089Z,100982.47
2023-05-19T16:04:54.788Z,100981.44
2023-05-19T16:07:23.936Z,100979.50
2023-05-19T16:09:52.531Z,100976.78
2023-05-19T16:12:21.039Z,100983.06
2023-05-19T16:14:49.508Z,100984.78
2023-05-19T16:17:18.203Z,100984.78
2023-05-19T16:19:48.614Z,100987.44
2023-05-19T16:22:18.179Z,100977.84
2023-05-19T16:24:46.749Z,100980.50
2023-05-19T16:27:15.157Z,100981.56
2023-05-19T16:29:43.486Z,100980.84
2023-05-19T16:32:12.078Z,100980.97
2023-05-19T16:34:41.081Z,100988.06
2023-05-19T16:37:11.086Z,100978.09
2023-05-19T16:39:40.345Z,100982.28
2023-05-19T16:42:08.865Z,100982.28
2023-05-19T16:44:37.269Z,100981.44
2023-05-19T16:47:06.326Z,100978.03
2023-05-19T16:49:35.272Z,100980.03
2023-05-19T16:52:03.751Z,100968.75
2023-05-19T16:54:33.935Z,100976.78
2023-05-19T16:57:02.612Z,100981.25
2023-05-19T16:59:30.993Z,100984.81
2023-05-19T17:01:59.593Z,100980.44
2023-05-19T17:04:30.554Z,100975.16
2023-05-19T17:06:59.437Z,100977.81
2023-05-19T17:09:28.342Z,100975.16
2023-05-19T17:11:58.216Z,100980.44
2023-05-19T17:14:26.710Z,100974.28
2023-05-19T17:16:55.121Z,100976.16
2023-05-19T17:19:23.601Z,100978.94
2023-05-19T17:21:52.159Z,100970.13
2023-05-19T17:24:20.640Z,100970.06
2023-05-19T17:26:49.110Z,100972.63
2023-05-19T17:29:19.020Z,100976.88
2023-05-19T17:31:47.861Z,100982.03
2023-05-19T17:34:16.315Z,100974.94
2023-05-19T17:36:44.746Z,100975.75
2023-05-19T17:39:13.072Z,100975.69
2023-05-19T17:41:41.567Z,100987.91
2023-05-19T17:44:11.313Z,100983.47
2023-05-19T17:46:41.537Z,100987.25
2023-05-19T17:49:10.775Z,100996.31
2023-05-19T17:51:39.981Z,100993.88
2023-05-19T17:54:09.278Z,100991.22
2023-05-19T17:56:43.291Z,100995.53
2023-05-19T17:59:12.745Z,100994.66
2023-05-19T18:01:42.999Z,100996.63
2023-05-19T18:04:13.936Z,100990.69
2023-05-19T18:06:45.884Z,101008.59
2023-05-19T18:09:16.524Z,101009.78
2023-05-19T18:11:44.969Z,101013.53
2023-05-19T18:14:13.372Z,101009.34
2023-05-19T18:16:43.494Z,101005.25
2023-05-19T18:19:12.631Z,101010.69
2023-05-19T18:21:41.115Z,101020.53
2023-05-19T18:24:09.637Z,101020.53
2023-05-19T18:26:42.109Z,101020.44
2023-05-19T18:29:11.250Z,101026.44
2023-05-19T18:31:39.960Z,101017.78
2023-05-19T18:34:09.822Z,101018.94
2023-05-19T18:36:38.690Z,101025.38
2023-05-19T18:39:07.270Z,101022.91
2023-05-19T18:41:41.221Z,101023.13
2023-05-19T18:44:09.738Z,101034.72
2023-05-19T18:46:38.140Z,101034.91
2023-05-19T18:49:06.684Z,101033.13
2023-05-19T18:51:36.537Z,101046.22
2023-05-19T18:54:04.988Z,101035.50
2023-05-19T18:56:34.599Z,101041.56
2023-05-19T18:59:03.397Z,101038.81
2023-05-19T19:01:32.334Z,101037.91
2023-05-19T19:04:02.107Z,101046.66
2023-05-19T19:06:31.329Z,101037.03
2023-05-19T19:09:02.248Z,101041.47
2023-05-19T19:11:30.901Z,101051.16
2023-05-19T19:13:59.317Z,101051.16
2023-05-19T19:16:28.856Z,101064.31
2023-05-19T19:18:57.399Z,101053.84
2023-05-19T19:21:25.961Z,101064.41
2023-05-19T19:23:55.636Z,101063.59
2023-05-19T19:26:26.940Z,101062.75
2023-05-19T19:28:55.642Z,101070.69
2023-05-19T19:31:25.927Z,101071.59
2023-05-19T19:33:59.175Z,101073.31
2023-05-19T19:36:28.101Z,101076.88
2023-05-19T19:38:56.605Z,101080.41
2023-05-19T19:41:26.755Z,101084.84
2023-05-19T19:43:56.288Z,101076.97
2023-05-19T19:46:24.751Z,101084.03
2023-05-19T19:48:53.260Z,101080.59
2023-05-19T19:51:21.780Z,101082.41
2023-05-19T19:53:50.204Z,101084.25
2023-05-19T19:56:18.650Z,101084.28
2023-05-19T19:58:48.860Z,101087.84
2023-05-19T20:01:17.396Z,101087.03
2023-05-19T20:03:45.949Z,101087.91
2023-05-19T20:06:14.837Z,101089.72
2023-05-19T20:08:43.279Z,101094.13
2023-05-19T20:11:11.810Z,101095.97
2023-05-19T20:13:40.289Z,101103.88
2023-05-19T20:16:10.378Z,101105.66
2023-05-19T20:18:38.889Z,101112.72
2023-05-19T20:21:07.253Z,101118.00
2023-05-19T20:23:35.809Z,101113.63
2023-05-19T20:28:38.869Z,101114.44
2023-05-19T20:31:07.584Z,101121.50
2023-05-19T20:33:37.857Z,101111.84
2023-05-19T20:36:07.610Z,101116.28
2023-05-19T20:38:36.053Z,101114.53
2023-05-19T20:41:04.905Z,101116.38
2023-05-19T20:43:33.813Z,101113.72
2023-05-19T20:46:03.873Z,101108.44
2023-05-19T20:48:32.610Z,101116.41
2023-05-19T20:51:02.578Z,101112.88
2023-05-19T20:53:31.021Z,101119.91
2023-05-19T20:55:59.675Z,101119.06
2023-05-19T20:58:30.381Z,101127.84
2023-05-19T21:00:58.953Z,101122.63
2023-05-19T21:03:28.736Z,101126.22
2023-05-19T21:05:57.563Z,101140.28
2023-05-19T21:08:27.713Z,101131.50
2023-05-19T21:10:56.250Z,101128.91
2023-05-19T21:13:24.634Z,101136.81
2023-05-19T21:15:52.995Z,101134.19
2023-05-19T21:18:21.496Z,101133.34
2023-05-19T21:20:49.881Z,101135.16
2023-05-19T21:23:18.434Z,101122.06
2023-05-19T21:25:48.442Z,101132.66
2023-05-19T21:28:16.871Z,101135.41
2023-05-19T21:30:49.568Z,101132.91
2023-05-19T21:33:18.416Z,101135.69
2023-05-19T21:35:47.090Z,101135.09
2023-05-19T21:38:24.043Z,101133.59
2023-05-19T21:40:54.424Z,101140.88
2023-05-19T21:43:23.360Z,101138.41
2023-05-19T21:45:51.974Z,101141.25
2023-05-19T21:48:21.676Z,101137.09
2023-05-19T21:50:54.586Z,101139.91
2023-05-19T21:53:23.200Z,101146.22
2023-05-19T21:55:51.688Z,101141.13
2023-05-19T21:58:21.672Z,101145.66
2023-05-19T22:00:51.069Z,101147.53
2023-05-19T22:03:20.020Z,101149.47
2023-05-19T22:05:50.613Z,101153.22
2023-05-19T22:08:19.836Z,101157.84
2023-05-19T22:10:51.198Z,101158.84
2023-05-19T22:13:19.908Z,101165.97
2023-05-19T22:15:50.089Z,101157.28
2023-05-19T22:18:18.557Z,101159.19
2023-05-19T22:20:46.926Z,101160.19
2023-05-19T22:23:15.481Z,101158.53
2023-05-19T22:25:43.853Z,101161.22
2023-05-19T22:28:12.441Z,101164.03
2023-05-19T22:30:42.318Z,101161.53
2023-05-19T22:33:13.130Z,101167.88
2023-05-19T22:35:41.629Z,101159.25
2023-05-19T22:38:10.730Z,101159.41
2023-05-19T22:40:40.263Z,101170.88
2023-05-19T22:43:08.697Z,101165.75
2023-05-19T22:45:37.482Z,101164.97
2023-05-19T22:48:06.920Z,101165.88
2023-05-19T22:50:36.766Z,101170.25
2023-05-19T22:53:05.131Z,101169.44
2023-05-19T22:55:33.775Z,101173.91
2023-05-19T22:58:02.329Z,101183.66
2023-05-19T23:00:31.166Z,101173.22
2023-05-19T23:02:59.808Z,101183.78
2023-05-19T23:05:28.313Z,101175.06
2023-05-19T23:07:58.325Z,101176.00
2023-05-19T23:10:26.775Z,101174.31
2023-05-19T23:12:55.238Z,101181.47
2023-05-19T23:15:23.823Z,101180.72
2023-05-19T23:17:52.267Z,101186.97
2023-05-19T23:20:20.845Z,101186.13
2023-05-19T23:22:49.181Z,101189.72
2023-05-19T23:25:19.184Z,101179.31
2023-05-19T23:27:47.784Z,101188.97
2023-05-19T23:30:16.099Z,101183.75
2023-05-19T23:32:45.566Z,101196.00
2023-05-19T23:35:15.231Z,101181.19
2023-05-19T23:37:43.988Z,101195.19
2023-05-19T23:40:13.102Z,101190.00
2023-05-19T23:42:44.902Z,101192.69
2023-05-19T23:45:13.413Z,101192.75
2023-05-19T23:47:41.851Z,101190.16
2023-05-19T23:50:11.522Z,101186.69
2023-05-19T23:52:39.857Z,101184.97
2023-05-19T23:55:10.019Z,101195.50
2023-05-19T23:57:38.511Z,101187.63
